Time;durP1;ratioP1;P1;durP2;ratioP2;P2;SDS_P1;SDS_P2;PMS_P1;PMS_P2;Temp;Humidity;BMP_temperature;BMP_pressure;BME280_temperature;BME280_humidity;BME280_pressure;Samples;Min_cycle;Max_cycle;Signal;HPM_P1;HPM_P2
2022/05/15 00:00:41;;;;;;;34.72;21.10;;;;;;;;;;5034706;28;20056;-67
2022/05/15 00:03:13;;;;;;;33.53;21.20;;;;;;;;;;5034864;28;20442;-65
2022/05/15 00:05:41;;;;;;;34.67;20.55;;;;;;;;;;5034579;28;20046;-67
2022/05/15 00:08:09;;;;;;;35.78;20.25;;;;;;;;;;5034889;28;20045;-66
2022/05/15 00:10:37;;;;;;;38.42;20.23;;;;;;;;;;5034754;28;20521;-66
2022/05/15 00:13:06;;;;;;;34.53;19.98;;;;;;;;;;5035183;28;20049;-66
2022/05/15 00:15:34;;;;;;;33.40;19.83;;;;;;;;;;5034620;28;20092;-67
2022/05/15 00:18:02;;;;;;;37.70;20.92;;;;;;;;;;5034906;28;20041;-67
2022/05/15 00:20:29;;;;;;;38.22;20.80;;;;;;;;;;5034456;28;20045;-66
2022/05/15 00:22:56;;;;;;;32.00;20.05;;;;;;;;;;5034548;28;20059;-67
2022/05/15 00:25:23;;;;;;;34.20;20.10;;;;;;;;;;5034275;28;20048;-66
2022/05/15 00:27:50;;;;;;;28.83;19.70;;;;;;;;;;5034656;28;20049;-67
2022/05/15 00:30:19;;;;;;;32.83;19.25;;;;;;;;;;5034230;28;20061;-66
2022/05/15 00:32:47;;;;;;;32.92;19.80;;;;;;;;;;5034247;28;20147;-66
2022/05/15 00:35:14;;;;;;;33.35;20.88;;;;;;;;;;5033972;28;20057;-67
2022/05/15 00:37:41;;;;;;;31.02;20.45;;;;;;;;;;5034086;28;20514;-67
2022/05/15 00:40:12;;;;;;;34.63;21.90;;;;;;;;;;5033869;28;20049;-66
2022/05/15 00:42:38;;;;;;;33.17;23.17;;;;;;;;;;5034236;28;20049;-67
2022/05/15 00:45:07;;;;;;;34.70;23.20;;;;;;;;;;5034162;28;20050;-67
2022/05/15 00:47:34;;;;;;;37.65;24.30;;;;;;;;;;5033816;28;20045;-66
2022/05/15 00:50:04;;;;;;;39.00;26.80;;;;;;;;;;5033984;28;20506;-67
2022/05/15 00:52:34;;;;;;;39.38;26.30;;;;;;;;;;5033732;28;20049;-66
2022/05/15 00:55:07;;;;;;;43.90;26.88;;;;;;;;;;5032537;28;20047;-67
2022/05/15 00:57:38;;;;;;;40.22;26.65;;;;;;;;;;5034094;28;20053;-66
2022/05/15 01:00:10;;;;;;;41.60;26.77;;;;;;;;;;5033503;28;20064;-67
2022/05/15 01:02:40;;;;;;;42.88;26.88;;;;;;;;;;5033829;28;20055;-66
2022/05/15 01:05:11;;;;;;;39.20;26.85;;;;;;;;;;5035477;28;20056;-67
2022/05/15 01:07:38;;;;;;;39.08;25.98;;;;;;;;;;5035603;28;20041;-67
2022/05/15 01:10:07;;;;;;;35.33;25.58;;;;;;;;;;5033557;28;20113;-67
2022/05/15 01:12:35;;;;;;;40.65;26.98;;;;;;;;;;5033947;28;20049;-67
2022/05/15 01:15:04;;;;;;;39.50;26.40;;;;;;;;;;5033295;28;20092;-66
2022/05/15 01:17:31;;;;;;;42.83;26.88;;;;;;;;;;5033484;28;20072;-67
2022/05/15 01:20:04;;;;;;;41.38;26.92;;;;;;;;;;5033337;28;20053;-66
2022/05/15 01:22:33;;;;;;;38.33;26.00;;;;;;;;;;5033784;28;20049;-65
2022/05/15 01:25:01;;;;;;;39.22;27.02;;;;;;;;;;5033209;28;20557;-66
2022/05/15 01:27:27;;;;;;;45.60;27.90;;;;;;;;;;5033205;28;20055;-66
2022/05/15 01:29:54;;;;;;;46.47;26.45;;;;;;;;;;5033121;28;20054;-68
2022/05/15 01:32:21;;;;;;;35.72;26.05;;;;;;;;;;5033058;28;20042;-68
2022/05/15 01:34:48;;;;;;;39.60;25.42;;;;;;;;;;5032842;28;20051;-68
2022/05/15 01:37:15;;;;;;;34.88;24.63;;;;;;;;;;5032741;28;20046;-69
2022/05/15 01:39:43;;;;;;;36.47;25.40;;;;;;;;;;5032628;28;20072;-69
2022/05/15 01:42:10;;;;;;;37.53;25.55;;;;;;;;;;5032735;28;20049;-70
2022/05/15 01:44:37;;;;;;;38.03;24.90;;;;;;;;;;5032649;28;20052;-68
2022/05/15 01:47:05;;;;;;;34.75;24.75;;;;;;;;;;5033337;28;20068;-67
2022/05/15 01:49:32;;;;;;;37.70;25.15;;;;;;;;;;5032437;28;20489;-67
2022/05/15 01:51:59;;;;;;;36.75;23.75;;;;;;;;;;5032707;28;20045;-67
2022/05/15 01:54:26;;;;;;;40.30;24.98;;;;;;;;;;5032533;28;20049;-69
2022/05/15 01:56:54;;;;;;;36.35;25.20;;;;;;;;;;5032515;28;20410;-69
2022/05/15 01:59:21;;;;;;;37.05;25.70;;;;;;;;;;5032426;28;20045;-67
2022/05/15 02:01:48;;;;;;;42.67;25.40;;;;;;;;;;5033101;28;20051;-68
2022/05/15 02:04:14;;;;;;;40.75;25.08;;;;;;;;;;5032694;28;20414;-69
2022/05/15 02:06:41;;;;;;;39.35;25.40;;;;;;;;;;5031775;28;20418;-68
2022/05/15 02:09:09;;;;;;;46.97;28.63;;;;;;;;;;5032371;28;20057;-68
2022/05/15 02:11:37;;;;;;;37.90;26.23;;;;;;;;;;5032312;28;20450;-67
2022/05/15 02:14:06;;;;;;;40.72;28.02;;;;;;;;;;5032242;28;20049;-68
2022/05/15 02:16:33;;;;;;;42.42;27.88;;;;;;;;;;5031869;28;20049;-69
2022/05/15 02:19:00;;;;;;;47.80;28.58;;;;;;;;;;5032196;28;20045;-69
2022/05/15 02:21:27;;;;;;;39.13;27.38;;;;;;;;;;5032283;28;20124;-69
2022/05/15 02:23:54;;;;;;;45.65;28.73;;;;;;;;;;5033231;28;20222;-68
2022/05/15 02:26:21;;;;;;;39.67;26.90;;;;;;;;;;5032160;28;20046;-68
2022/05/15 02:28:48;;;;;;;43.67;27.05;;;;;;;;;;5032183;28;20053;-68
2022/05/15 02:31:17;;;;;;;42.33;26.77;;;;;;;;;;5031782;28;20050;-68
2022/05/15 02:33:44;;;;;;;41.58;28.95;;;;;;;;;;5032303;28;20053;-68
2022/05/15 02:36:11;;;;;;;42.65;28.38;;;;;;;;;;5032037;28;20503;-68
2022/05/15 02:38:38;;;;;;;43.50;28.05;;;;;;;;;;5032255;28;20054;-68
2022/05/15 02:41:05;;;;;;;42.53;27.85;;;;;;;;;;5031748;28;20065;-67
2022/05/15 02:43:32;;;;;;;42.88;28.73;;;;;;;;;;5031960;28;20041;-69
2022/05/15 02:46:00;;;;;;;41.92;27.58;;;;;;;;;;5031659;28;20046;-68
2022/05/15 02:51:12;;;;;;;49.47;29.40;;;;;;;;;;5032696;28;20060;-68
2022/05/15 02:53:42;;;;;;;44.70;28.23;;;;;;;;;;5032229;28;20461;-68
2022/05/15 02:56:12;;;;;;;40.20;27.40;;;;;;;;;;5031510;28;20050;-68
2022/05/15 02:58:39;;;;;;;43.33;25.60;;;;;;;;;;5032042;28;20491;-67
2022/05/15 03:01:06;;;;;;;44.08;27.05;;;;;;;;;;5031823;28;20132;-67
2022/05/15 03:03:35;;;;;;;44.15;27.05;;;;;;;;;;5031787;28;20053;-68
2022/05/15 03:06:02;;;;;;;40.58;26.58;;;;;;;;;;5032003;28;20129;-67
2022/05/15 03:08:29;;;;;;;45.78;27.52;;;;;;;;;;5031876;28;20466;-68
2022/05/15 03:10:56;;;;;;;42.55;27.58;;;;;;;;;;5032134;28;20072;-68
2022/05/15 03:13:23;;;;;;;36.90;24.85;;;;;;;;;;5032309;28;20057;-67
2022/05/15 03:15:49;;;;;;;42.33;25.60;;;;;;;;;;5031690;28;20072;-68
2022/05/15 03:18:16;;;;;;;42.30;24.95;;;;;;;;;;5034527;28;20140;-69
2022/05/15 03:20:45;;;;;;;40.88;26.70;;;;;;;;;;5035649;28;20045;-68
2022/05/15 03:23:13;;;;;;;43.45;27.40;;;;;;;;;;5036088;28;20041;-69
2022/05/15 03:25:40;;;;;;;40.63;26.90;;;;;;;;;;5035668;28;20049;-68
2022/05/15 03:28:09;;;;;;;38.92;26.95;;;;;;;;;;5035598;28;20049;-69
2022/05/15 03:30:36;;;;;;;39.05;25.75;;;;;;;;;;5035315;28;20152;-68
2022/05/15 03:33:03;;;;;;;39.53;26.38;;;;;;;;;;5035403;28;20041;-69
2022/05/15 03:35:31;;;;;;;38.78;24.48;;;;;;;;;;5035054;28;20383;-69
2022/05/15 03:37:59;;;;;;;34.00;25.23;;;;;;;;;;5035465;28;20128;-70
2022/05/15 03:40:27;;;;;;;36.03;23.60;;;;;;;;;;5035470;28;20072;-67
2022/05/15 03:42:54;;;;;;;39.35;24.52;;;;;;;;;;5036359;28;20392;-67
2022/05/15 03:45:20;;;;;;;32.45;23.33;;;;;;;;;;5035457;28;20383;-68
2022/05/15 03:47:49;;;;;;;39.05;24.05;;;;;;;;;;5035119;28;20057;-68
2022/05/15 03:50:16;;;;;;;43.53;25.23;;;;;;;;;;5035296;28;20076;-68
2022/05/15 03:52:43;;;;;;;35.22;23.83;;;;;;;;;;5035063;28;20049;-68
2022/05/15 03:55:12;;;;;;;33.67;22.30;;;;;;;;;;5035073;28;20438;-68
2022/05/15 03:57:40;;;;;;;33.33;23.35;;;;;;;;;;5034986;28;20057;-68
2022/05/15 04:00:11;;;;;;;36.03;22.38;;;;;;;;;;5035099;28;20061;-69
2022/05/15 04:02:38;;;;;;;30.65;21.08;;;;;;;;;;5035132;28;20479;-68
2022/05/15 04:05:07;;;;;;;32.33;20.67;;;;;;;;;;5034608;28;20495;-69
2022/05/15 04:07:35;;;;;;;35.60;20.25;;;;;;;;;;5034860;28;20050;-68
2022/05/15 04:10:03;;;;;;;30.98;20.83;;;;;;;;;;5034790;28;20058;-68
2022/05/15 04:12:31;;;;;;;31.50;20.55;;;;;;;;;;5034711;28;20136;-68
2022/05/15 04:14:58;;;;;;;37.10;20.98;;;;;;;;;;5034402;28;20048;-69
2022/05/15 04:17:26;;;;;;;33.47;21.67;;;;;;;;;;5034488;28;20431;-68
2022/05/15 04:19:53;;;;;;;32.88;21.50;;;;;;;;;;5035086;28;20141;-67
2022/05/15 04:22:20;;;;;;;35.45;21.30;;;;;;;;;;5034573;28;20049;-68
2022/05/15 04:24:46;;;;;;;34.00;21.55;;;;;;;;;;5034206;28;20069;-68
2022/05/15 04:27:13;;;;;;;34.53;21.95;;;;;;;;;;5034475;28;20064;-67
2022/05/15 04:29:42;;;;;;;31.65;20.80;;;;;;;;;;5034152;28;20061;-68
2022/05/15 04:32:09;;;;;;;31.70;21.42;;;;;;;;;;5034163;28;20060;-68
2022/05/15 04:34:36;;;;;;;34.80;22.40;;;;;;;;;;5034291;28;20510;-69
2022/05/15 04:37:03;;;;;;;34.75;23.13;;;;;;;;;;5034652;28;20050;-68
2022/05/15 04:39:32;;;;;;;34.70;22.92;;;;;;;;;;5034650;28;20045;-68
2022/05/15 04:42:00;;;;;;;35.65;23.88;;;;;;;;;;5034074;28;20053;-69
2022/05/15 04:44:27;;;;;;;33.35;22.88;;;;;;;;;;5034311;28;20075;-69
2022/05/15 04:46:56;;;;;;;37.08;25.02;;;;;;;;;;5033733;28;20057;-69
2022/05/15 04:49:23;;;;;;;37.88;24.23;;;;;;;;;;5034028;28;20053;-68
2022/05/15 04:51:49;;;;;;;40.03;24.33;;;;;;;;;;5035092;28;20068;-68
2022/05/15 04:54:16;;;;;;;36.47;23.88;;;;;;;;;;5034859;28;20045;-68
2022/05/15 04:56:44;;;;;;;36.70;23.38;;;;;;;;;;5035102;28;20060;-69
2022/05/15 04:59:11;;;;;;;31.73;22.08;;;;;;;;;;5034436;28;20050;-69
2022/05/15 05:01:37;;;;;;;37.47;24.92;;;;;;;;;;5035091;28;20053;-69
2022/05/15 05:04:06;;;;;;;36.30;24.92;;;;;;;;;;5034847;28;20053;-68
2022/05/15 05:06:33;;;;;;;36.78;22.67;;;;;;;;;;5035310;28;20055;-68
2022/05/15 05:09:00;;;;;;;32.78;21.67;;;;;;;;;;5034114;28;20049;-67
2022/05/15 05:11:27;;;;;;;33.97;21.45;;;;;;;;;;5034399;28;20333;-70
2022/05/15 05:13:54;;;;;;;35.40;23.52;;;;;;;;;;5034302;28;20057;-69
2022/05/15 05:16:21;;;;;;;31.75;21.58;;;;;;;;;;5033773;28;20053;-70
2022/05/15 05:18:49;;;;;;;29.95;21.98;;;;;;;;;;5034307;28;20050;-69
2022/05/15 05:21:18;;;;;;;34.97;23.13;;;;;;;;;;5034080;28;20046;-69
2022/05/15 05:23:45;;;;;;;34.50;23.25;;;;;;;;;;5034275;28;20049;-70
2022/05/15 05:26:11;;;;;;;31.42;22.92;;;;;;;;;;5034024;28;20399;-70
2022/05/15 05:28:38;;;;;;;31.02;20.92;;;;;;;;;;5033901;28;20064;-70
2022/05/15 05:31:06;;;;;;;33.60;21.80;;;;;;;;;;5033725;28;20041;-68
2022/05/15 05:33:33;;;;;;;32.58;20.15;;;;;;;;;;5033538;28;20041;-67
2022/05/15 05:36:00;;;;;;;29.15;20.05;;;;;;;;;;5033010;28;20050;-66
2022/05/15 05:38:28;;;;;;;28.58;19.90;;;;;;;;;;5033132;28;20050;-67
2022/05/15 05:40:55;;;;;;;29.85;20.77;;;;;;;;;;5032542;28;20057;-68
2022/05/15 05:43:23;;;;;;;29.25;19.80;;;;;;;;;;5033443;28;20069;-67
2022/05/15 05:45:49;;;;;;;34.38;21.00;;;;;;;;;;5032663;28;20049;-68
2022/05/15 05:48:16;;;;;;;28.15;20.45;;;;;;;;;;5032967;28;20491;-67
2022/05/15 05:50:43;;;;;;;31.98;21.95;;;;;;;;;;5032922;28;20055;-66
2022/05/15 05:53:11;;;;;;;34.17;23.10;;;;;;;;;;5032829;28;20055;-68
2022/05/15 05:55:39;;;;;;;33.58;22.67;;;;;;;;;;5061152;22;20045;-80
2022/05/15 05:58:06;;;;;;;35.67;23.38;;;;;;;;;;5046023;28;20097;-81
2022/05/15 06:00:37;;;;;;;36.50;24.10;;;;;;;;;;5040409;28;20045;-80
2022/05/15 06:05:49;;;;;;;34.13;23.13;;;;;;;;;;5041055;28;20084;-80
2022/05/15 06:08:17;;;;;;;32.35;23.33;;;;;;;;;;5041071;28;20079;-81
2022/05/15 06:10:45;;;;;;;34.30;23.48;;;;;;;;;;5041060;28;20451;-82
2022/05/15 06:13:12;;;;;;;37.50;23.90;;;;;;;;;;5041333;28;20050;-82
2022/05/15 06:15:39;;;;;;;34.33;22.88;;;;;;;;;;5040244;28;20050;-83
2022/05/15 06:18:08;;;;;;;29.15;20.95;;;;;;;;;;5039383;28;20124;-82
2022/05/15 06:20:35;;;;;;;34.33;21.60;;;;;;;;;;5040010;28;20079;-82
2022/05/15 06:23:02;;;;;;;32.30;21.92;;;;;;;;;;5039726;28;20049;-82
2022/05/15 06:25:29;;;;;;;33.67;21.60;;;;;;;;;;5041560;28;20049;-81
2022/05/15 06:27:57;;;;;;;28.67;20.05;;;;;;;;;;5043924;28;20045;-82
2022/05/15 06:30:24;;;;;;;30.48;20.77;;;;;;;;;;5039895;28;20057;-82
2022/05/15 06:32:50;;;;;;;28.27;19.63;;;;;;;;;;5035331;28;20045;-81
2022/05/15 06:35:17;;;;;;;28.98;19.33;;;;;;;;;;5035384;28;20566;-81
2022/05/15 06:37:44;;;;;;;26.10;17.95;;;;;;;;;;5041263;28;20046;-82
2022/05/15 06:40:13;;;;;;;25.42;15.63;;;;;;;;;;5041017;28;20049;-83
2022/05/15 06:42:40;;;;;;;23.58;15.52;;;;;;;;;;5041119;28;20523;-82
2022/05/15 06:45:10;;;;;;;20.73;13.80;;;;;;;;;;5040458;28;20050;-82
2022/05/15 06:47:37;;;;;;;26.23;16.57;;;;;;;;;;5039918;28;20393;-82
2022/05/15 06:50:04;;;;;;;24.17;15.68;;;;;;;;;;5041056;28;20084;-82
2022/05/15 06:52:31;;;;;;;22.95;14.02;;;;;;;;;;5043570;28;20463;-82
2022/05/15 06:54:58;;;;;;;20.27;14.73;;;;;;;;;;5043801;28;20072;-82
2022/05/15 06:57:30;;;;;;;21.80;14.75;;;;;;;;;;5046188;28;20046;-82
2022/05/15 06:59:57;;;;;;;23.40;14.68;;;;;;;;;;5045736;28;20056;-82
2022/05/15 07:02:29;;;;;;;24.67;15.48;;;;;;;;;;5047445;28;20077;-83
2022/05/15 07:05:00;;;;;;;29.75;19.17;;;;;;;;;;5048401;28;20059;-82
2022/05/15 07:07:27;;;;;;;24.02;15.65;;;;;;;;;;5048106;28;20053;-82
2022/05/15 07:09:54;;;;;;;21.73;13.85;;;;;;;;;;5048517;28;20076;-82
2022/05/15 07:12:20;;;;;;;20.95;13.02;;;;;;;;;;5052569;28;20045;-83
2022/05/15 07:14:47;;;;;;;19.23;13.82;;;;;;;;;;5047905;28;20061;-82
2022/05/15 07:17:14;;;;;;;22.55;13.70;;;;;;;;;;5049357;28;20045;-83
2022/05/15 07:19:42;;;;;;;23.92;14.25;;;;;;;;;;5048675;28;20050;-82
2022/05/15 07:22:10;;;;;;;21.45;13.95;;;;;;;;;;5050417;28;20075;-82
2022/05/15 07:24:38;;;;;;;22.15;14.38;;;;;;;;;;5048208;28;20091;-82
2022/05/15 07:27:06;;;;;;;23.58;15.52;;;;;;;;;;5047746;28;20432;-82
2022/05/15 07:29:42;;;;;;;22.17;14.20;;;;;;;;;;5047908;28;20072;-83
2022/05/15 07:32:10;;;;;;;21.23;14.32;;;;;;;;;;5048457;28;20072;-83
2022/05/15 07:34:38;;;;;;;20.00;13.88;;;;;;;;;;5047169;28;20042;-83
2022/05/15 07:37:07;;;;;;;21.30;13.75;;;;;;;;;;5045626;28;20096;-82
2022/05/15 07:39:34;;;;;;;19.35;12.73;;;;;;;;;;5043965;28;20068;-81
2022/05/15 07:42:01;;;;;;;28.85;18.77;;;;;;;;;;5043586;28;20076;-82
2022/05/15 07:44:28;;;;;;;21.10;13.95;;;;;;;;;;5043943;28;20084;-82
2022/05/15 07:46:55;;;;;;;43.65;27.80;;;;;;;;;;5033962;28;20516;-82
2022/05/15 07:49:21;;;;;;;19.45;12.90;;;;;;;;;;5024089;28;20053;-83
2022/05/15 07:51:48;;;;;;;18.38;12.25;;;;;;;;;;5024774;28;20050;-82
2022/05/15 07:54:18;;;;;;;23.65;12.05;;;;;;;;;;5024963;28;20045;-82
2022/05/15 07:56:45;;;;;;;20.48;11.32;;;;;;;;;;5028012;28;20046;-82
2022/05/15 07:59:13;;;;;;;17.70;12.30;;;;;;;;;;5025883;28;20042;-82
2022/05/15 08:01:40;;;;;;;19.58;12.55;;;;;;;;;;5024603;28;20073;-82
2022/05/15 08:04:07;;;;;;;16.50;11.02;;;;;;;;;;5024346;28;20046;-82
2022/05/15 08:09:20;;;;;;;14.88;9.82;;;;;;;;;;5026116;28;20069;-82
2022/05/15 08:11:46;;;;;;;14.52;9.93;;;;;;;;;;5026599;28;20049;-82
2022/05/15 08:14:13;;;;;;;13.85;10.00;;;;;;;;;;5026699;28;20096;-82
2022/05/15 08:16:40;;;;;;;20.20;10.65;;;;;;;;;;5025914;28;20050;-83
2022/05/15 08:24:46;;;;;;;13.38;9.25;;;;;;;;;;5025312;28;20410;-82
2022/05/15 08:27:20;;;;;;;11.77;8.35;;;;;;;;;;5026162;28;20080;-82
2022/05/15 08:29:47;;;;;;;15.88;9.65;;;;;;;;;;5026245;28;20054;-82
2022/05/15 08:32:14;;;;;;;13.27;8.40;;;;;;;;;;5025660;28;20045;-83
2022/05/15 08:34:41;;;;;;;12.63;8.13;;;;;;;;;;5024205;28;20133;-82
2022/05/15 08:37:11;;;;;;;11.38;7.30;;;;;;;;;;5024577;28;20046;-83
2022/05/15 08:39:46;;;;;;;14.30;7.47;;;;;;;;;;5023689;28;20041;-83
2022/05/15 08:42:22;;;;;;;12.10;7.32;;;;;;;;;;5028570;28;20061;-82
2022/05/15 08:44:52;;;;;;;12.20;6.53;;;;;;;;;;5027642;28;20050;-83
2022/05/15 08:47:30;;;;;;;9.77;6.25;;;;;;;;;;5044607;28;20042;-82
2022/05/15 08:50:02;;;;;;;10.32;7.05;;;;;;;;;;5057855;28;20037;-82
2022/05/15 08:52:37;;;;;;;13.77;6.88;;;;;;;;;;5055330;28;20049;-82
2022/05/15 08:55:10;;;;;;;14.43;8.13;;;;;;;;;;5048120;28;20046;-82
2022/05/15 08:57:45;;;;;;;12.77;7.30;;;;;;;;;;5047064;28;20054;-82
2022/05/15 09:00:16;;;;;;;11.13;6.95;;;;;;;;;;5046958;28;20088;-83
2022/05/15 09:02:44;;;;;;;10.25;6.70;;;;;;;;;;5046318;28;20048;-83
2022/05/15 09:05:14;;;;;;;9.82;7.07;;;;;;;;;;5044885;28;20551;-82
2022/05/15 09:07:52;;;;;;;12.70;7.30;;;;;;;;;;5045586;28;20091;-83
2022/05/15 09:10:31;;;;;;;13.93;7.55;;;;;;;;;;5045425;28;20113;-83
2022/05/15 09:13:04;;;;;;;12.60;7.18;;;;;;;;;;5045671;28;20061;-83
2022/05/15 09:15:31;;;;;;;11.40;7.20;;;;;;;;;;5044309;28;20050;-82
2022/05/15 09:18:02;;;;;;;10.40;6.47;;;;;;;;;;5044544;28;20046;-82
2022/05/15 09:20:39;;;;;;;11.68;6.95;;;;;;;;;;5044987;28;20041;-81
2022/05/15 09:23:15;;;;;;;10.40;7.53;;;;;;;;;;5050353;28;20046;-81
2022/05/15 09:25:54;;;;;;;12.88;6.88;;;;;;;;;;5049414;28;20050;-81
2022/05/15 09:28:21;;;;;;;12.77;6.38;;;;;;;;;;5046208;28;20061;-81
2022/05/15 09:30:50;;;;;;;18.77;9.57;;;;;;;;;;5050065;28;20045;-81
2022/05/15 09:33:25;;;;;;;14.15;8.40;;;;;;;;;;5050312;28;20049;-81
2022/05/15 09:36:22;;;;;;;10.73;6.57;;;;;;;;;;5049455;28;20049;-83
2022/05/15 09:38:51;;;;;;;9.43;5.80;;;;;;;;;;5042574;28;20046;-83
2022/05/15 09:44:11;;;;;;;10.75;5.53;;;;;;;;;;5040738;28;20072;-83
2022/05/15 09:46:40;;;;;;;9.32;4.80;;;;;;;;;;5032660;28;20104;-82
2022/05/15 09:49:15;;;;;;;9.30;5.43;;;;;;;;;;5021638;28;20413;-83
2022/05/15 09:51:45;;;;;;;9.77;5.47;;;;;;;;;;5020272;28;20275;-82
2022/05/15 09:54:28;;;;;;;10.43;6.00;;;;;;;;;;5021364;28;20046;-81
2022/05/15 09:57:09;;;;;;;11.80;5.25;;;;;;;;;;5021174;28;20081;-83
2022/05/15 09:59:36;;;;;;;10.70;5.20;;;;;;;;;;5022921;28;20125;-81
2022/05/15 10:02:03;;;;;;;13.10;5.90;;;;;;;;;;5020827;28;20046;-82
2022/05/15 10:07:10;;;;;;;7.37;5.10;;;;;;;;;;5028141;28;20050;-81
2022/05/15 10:09:40;;;;;;;9.68;5.40;;;;;;;;;;5029752;28;20060;-81
2022/05/15 10:12:15;;;;;;;8.77;5.00;;;;;;;;;;5037833;28;20045;-82
2022/05/15 10:14:50;;;;;;;8.40;6.15;;;;;;;;;;5037310;28;20038;-82
2022/05/15 10:17:17;;;;;;;8.85;5.30;;;;;;;;;;5038008;28;20063;-81
2022/05/15 10:19:49;;;;;;;8.85;5.35;;;;;;;;;;5036823;28;20068;-80
2022/05/15 10:22:27;;;;;;;8.05;5.60;;;;;;;;;;5036769;28;20038;-81
2022/05/15 10:24:57;;;;;;;12.85;6.75;;;;;;;;;;5035786;28;20060;-80
2022/05/15 10:27:27;;;;;;;;;;;;;;;;;;5027630;28;20081;-81
2022/05/15 10:29:58;;;;;;;12.32;5.85;;;;;;;;;;5030574;28;20036;-81
2022/05/15 10:32:29;;;;;;;9.02;5.22;;;;;;;;;;5033926;28;20113;-80
2022/05/15 10:34:57;;;;;;;10.30;5.65;;;;;;;;;;5033400;28;20109;-79
2022/05/15 10:37:46;;;;;;;11.18;5.57;;;;;;;;;;5034776;28;20057;-80
2022/05/15 10:40:27;;;;;;;8.40;4.65;;;;;;;;;;5033682;28;20057;-79
2022/05/15 10:43:06;;;;;;;13.02;6.07;;;;;;;;;;5032195;28;20054;-80
2022/05/15 10:45:40;;;;;;;10.50;6.22;;;;;;;;;;5029644;28;20053;-80
2022/05/15 10:48:24;;;;;;;24.50;9.77;;;;;;;;;;5037126;28;20069;-81
2022/05/15 10:51:00;;;;;;;9.45;5.63;;;;;;;;;;5027407;28;20075;-81
2022/05/15 10:59:35;;;;;;;11.68;6.60;;;;;;;;;;5034590;28;20092;-81
2022/05/15 11:02:14;;;;;;;10.18;6.47;;;;;;;;;;5033612;28;20050;-81
2022/05/15 11:04:49;;;;;;;10.48;6.15;;;;;;;;;;5033218;28;20050;-81
2022/05/15 11:07:22;;;;;;;8.43;6.03;;;;;;;;;;5030981;28;20054;-79
2022/05/15 11:10:03;;;;;;;16.88;7.78;;;;;;;;;;5031957;28;20049;-81
2022/05/15 11:12:41;;;;;;;18.42;9.68;;;;;;;;;;5031051;28;20046;-80
2022/05/15 11:15:24;;;;;;;10.55;6.80;;;;;;;;;;5028392;28;20050;-81
2022/05/15 11:17:59;;;;;;;11.95;7.00;;;;;;;;;;5028013;28;20053;-79
2022/05/15 11:20:31;;;;;;;12.57;6.93;;;;;;;;;;5025499;28;20045;-81
2022/05/15 11:23:07;;;;;;;12.65;7.55;;;;;;;;;;5027265;28;20076;-81
2022/05/15 11:25:39;;;;;;;13.68;7.60;;;;;;;;;;5024695;28;20124;-80
2022/05/15 11:28:09;;;;;;;14.93;7.60;;;;;;;;;;5022584;28;20046;-80
2022/05/15 11:30:41;;;;;;;10.00;6.78;;;;;;;;;;5022058;28;20080;-81
2022/05/15 11:33:10;;;;;;;11.35;7.82;;;;;;;;;;5024304;28;20076;-82
2022/05/15 11:35:39;;;;;;;11.23;7.93;;;;;;;;;;5027677;28;20054;-82
2022/05/15 11:38:28;;;;;;;12.30;6.95;;;;;;;;;;5028718;28;20081;-82
2022/05/15 11:40:56;;;;;;;15.40;7.40;;;;;;;;;;5031210;28;20050;-80
2022/05/15 11:43:37;;;;;;;13.38;6.88;;;;;;;;;;5032410;28;20068;-82
2022/05/15 11:46:07;;;;;;;15.40;8.43;;;;;;;;;;5034006;28;20053;-81
2022/05/15 11:48:49;;;;;;;;;;;;;;;;;;5051199;28;20079;-82
2022/05/15 11:51:29;;;;;;;13.00;8.35;;;;;;;;;;5052390;28;19932;-81
2022/05/15 11:53:58;;;;;;;12.82;7.22;;;;;;;;;;5051404;28;20484;-80
2022/05/15 11:56:27;;;;;;;12.48;7.70;;;;;;;;;;5033828;22;20050;-80
2022/05/15 11:58:57;;;;;;;12.30;8.10;;;;;;;;;;5020383;28;20076;-80
2022/05/15 12:01:48;;;;;;;11.68;8.10;;;;;;;;;;5018038;28;20081;-79
2022/05/15 12:04:52;;;;;;;11.00;7.38;;;;;;;;;;5018328;28;20559;-79
2022/05/15 12:07:32;;;;;;;11.52;7.35;;;;;;;;;;5017983;28;20046;-78
2022/05/15 12:09:59;;;;;;;12.27;8.20;;;;;;;;;;5018839;28;20050;-79
2022/05/15 12:12:51;;;;;;;12.88;7.47;;;;;;;;;;5019371;28;20120;-79
2022/05/15 12:15:39;;;;;;;10.68;7.32;;;;;;;;;;5019076;28;20045;-79
2022/05/15 12:18:29;;;;;;;13.40;9.38;;;;;;;;;;5018505;28;20104;-79
2022/05/15 12:20:57;;;;;;;12.32;7.82;;;;;;;;;;5018979;28;20046;-79
2022/05/15 12:23:26;;;;;;;13.02;7.78;;;;;;;;;;5018514;28;20046;-79
2022/05/15 12:25:56;;;;;;;11.40;7.65;;;;;;;;;;5018575;28;20054;-79
2022/05/15 12:31:19;;;;;;;12.80;8.05;;;;;;;;;;5018448;28;20151;-79
2022/05/15 12:33:47;;;;;;;10.18;7.13;;;;;;;;;;5018139;28;20054;-79
2022/05/15 12:36:17;;;;;;;12.07;8.65;;;;;;;;;;5018217;28;20050;-79
2022/05/15 12:38:47;;;;;;;10.07;7.57;;;;;;;;;;5018292;28;20050;-79
2022/05/15 12:41:17;;;;;;;12.95;7.43;;;;;;;;;;5018198;28;20535;-79
2022/05/15 12:43:45;;;;;;;19.27;8.23;;;;;;;;;;5017653;28;20050;-79
2022/05/15 12:46:24;;;;;;;10.60;6.93;;;;;;;;;;5018537;28;20325;-79
2022/05/15 12:48:52;;;;;;;9.07;6.32;;;;;;;;;;5017374;28;20181;-79
2022/05/15 12:51:27;;;;;;;10.38;8.23;;;;;;;;;;5017985;28;20049;-79
2022/05/15 12:53:54;;;;;;;11.70;7.32;;;;;;;;;;5017515;28;20050;-80
2022/05/15 12:56:25;;;;;;;11.77;7.57;;;;;;;;;;5017224;28;20427;-79
2022/05/15 12:58:56;;;;;;;9.18;7.35;;;;;;;;;;5018373;28;20436;-80
2022/05/15 13:01:26;;;;;;;10.85;6.78;;;;;;;;;;5017768;28;20053;-80
2022/05/15 13:03:58;;;;;;;8.90;7.22;;;;;;;;;;5016859;28;20049;-80
2022/05/15 13:06:31;;;;;;;10.88;6.80;;;;;;;;;;5016921;28;20116;-79
2022/05/15 13:09:01;;;;;;;10.95;6.70;;;;;;;;;;5017914;28;20132;-80
2022/05/15 13:11:37;;;;;;;10.00;7.00;;;;;;;;;;5017713;28;20061;-80
2022/05/15 13:14:04;;;;;;;11.60;6.75;;;;;;;;;;5017608;28;20050;-80
2022/05/15 13:16:31;;;;;;;9.82;6.50;;;;;;;;;;5017151;28;20112;-80
2022/05/15 13:19:00;;;;;;;13.02;6.75;;;;;;;;;;5017143;28;20052;-80
2022/05/15 13:21:33;;;;;;;9.95;7.25;;;;;;;;;;5017590;28;20046;-80
2022/05/15 13:24:01;;;;;;;13.68;6.70;;;;;;;;;;5018975;28;20069;-79
2022/05/15 13:26:38;;;;;;;11.05;7.30;;;;;;;;;;5018121;28;20072;-79
2022/05/15 13:29:07;;;;;;;10.48;6.47;;;;;;;;;;5017695;28;20133;-80
2022/05/15 13:31:37;;;;;;;9.15;6.68;;;;;;;;;;5025720;28;20081;-80
2022/05/15 13:34:09;;;;;;;6.85;5.93;;;;;;;;;;5038244;28;20048;-80
2022/05/15 13:36:36;;;;;;;9.38;6.63;;;;;;;;;;5033436;28;20485;-79
2022/05/15 13:44:37;;;;;;;9.73;6.72;;;;;;;;;;5015529;28;20056;-79
2022/05/15 13:47:06;;;;;;;9.88;6.07;;;;;;;;;;5027387;28;20041;-80
2022/05/15 13:49:42;;;;;;;10.18;5.82;;;;;;;;;;5034598;28;20053;-79
2022/05/15 13:52:24;;;;;;;9.45;6.30;;;;;;;;;;5034364;28;20100;-79
2022/05/15 13:54:51;;;;;;;11.52;5.78;;;;;;;;;;5033898;28;20042;-79
2022/05/15 13:57:18;;;;;;;9.73;6.20;;;;;;;;;;5034102;28;20076;-80
2022/05/15 14:00:05;;;;;;;8.18;5.60;;;;;;;;;;5033594;28;20057;-79
2022/05/15 14:02:54;;;;;;;9.75;6.00;;;;;;;;;;5033371;28;20053;-79
2022/05/15 14:05:22;;;;;;;8.98;5.95;;;;;;;;;;5032970;28;20045;-78
2022/05/15 14:07:49;;;;;;;8.00;6.28;;;;;;;;;;5033528;28;20691;-78
2022/05/15 14:10:21;;;;;;;10.73;6.75;;;;;;;;;;5033435;28;20467;-78
2022/05/15 14:12:59;;;;;;;8.23;6.15;;;;;;;;;;5033324;28;20083;-79
2022/05/15 14:15:40;;;;;;;9.43;6.15;;;;;;;;;;5033084;28;20099;-79
2022/05/15 14:18:10;;;;;;;7.93;5.05;;;;;;;;;;5033281;28;20050;-78
2022/05/15 14:20:41;;;;;;;12.90;7.97;;;;;;;;;;5033904;28;20047;-79
2022/05/15 14:23:08;;;;;;;12.98;9.63;;;;;;;;;;5033938;28;20085;-79
2022/05/15 14:25:36;;;;;;;10.35;7.57;;;;;;;;;;5033434;28;20050;-79
2022/05/15 14:28:03;;;;;;;9.70;5.57;;;;;;;;;;5033810;28;20046;-79
2022/05/15 14:30:30;;;;;;;15.02;5.70;;;;;;;;;;5035385;28;20049;-78
2022/05/15 14:33:00;;;;;;;8.82;5.32;;;;;;;;;;5036583;28;20049;-78
2022/05/15 14:35:31;;;;;;;8.82;5.90;;;;;;;;;;5035821;28;20049;-78
2022/05/15 14:37:59;;;;;;;8.30;5.65;;;;;;;;;;5036377;28;20045;-79
2022/05/15 14:40:26;;;;;;;9.82;5.30;;;;;;;;;;5036582;28;20136;-79
2022/05/15 14:42:53;;;;;;;7.30;5.47;;;;;;;;;;5035801;28;20049;-78
2022/05/15 14:45:20;;;;;;;8.93;6.13;;;;;;;;;;5036242;28;20041;-79
2022/05/15 14:47:50;;;;;;;7.53;5.70;;;;;;;;;;5019416;28;20103;-79
2022/05/15 14:50:18;;;;;;;7.30;5.47;;;;;;;;;;5017219;28;20046;-79
2022/05/15 14:52:47;;;;;;;7.18;5.90;;;;;;;;;;5017095;28;20100;-79
2022/05/15 14:58:06;;;;;;;7.97;5.30;;;;;;;;;;5017902;28;20042;-79
2022/05/15 15:00:33;;;;;;;7.45;4.97;;;;;;;;;;5017698;28;20417;-79
2022/05/15 15:03:00;;;;;;;8.38;5.28;;;;;;;;;;5017486;28;20100;-79
2022/05/15 15:05:28;;;;;;;6.40;5.10;;;;;;;;;;5014998;28;20050;-80
2022/05/15 15:07:54;;;;;;;6.35;5.32;;;;;;;;;;5015753;28;20085;-80
2022/05/15 15:10:23;;;;;;;9.02;5.53;;;;;;;;;;5016571;28;20042;-79
2022/05/15 15:12:49;;;;;;;8.13;5.80;;;;;;;;;;5017894;28;20045;-80
2022/05/15 15:15:16;;;;;;;8.75;5.90;;;;;;;;;;5023226;28;20050;-79
2022/05/15 15:17:43;;;;;;;8.38;5.20;;;;;;;;;;5022836;28;20050;-80